sensor_id;sensor_type;location;lat;lon;timestamp;temperature;humidity
43647;DHT22;56152;49.996;18.980;2023-05-21T00:01:37;14.50;93.30
43647;DHT22;56152;49.996;18.980;2023-05-21T00:06:38;14.40;93.50
43647;DHT22;56152;49.996;18.980;2023-05-21T00:11:42;14.30;93.60
43647;DHT22;56152;49.996;18.980;2023-05-21T00:16:47;14.10;93.70
43647;DHT22;56152;49.996;18.980;2023-05-21T00:21:50;14.00;93.90
43647;DHT22;56152;49.996;18.980;2023-05-21T00:26:52;13.90;93.90
43647;DHT22;56152;49.996;18.980;2023-05-21T00:31:57;13.90;93.90
43647;DHT22;56152;49.996;18.980;2023-05-21T00:36:59;13.90;94.00
43647;DHT22;56152;49.996;18.980;2023-05-21T00:42:02;13.70;94.10
43647;DHT22;56152;49.996;18.980;2023-05-21T00:47:09;13.70;94.10
43647;DHT22;56152;49.996;18.980;2023-05-21T00:52:11;13.70;94.30
43647;DHT22;56152;49.996;18.980;2023-05-21T00:57:16;13.60;94.40
43647;DHT22;56152;49.996;18.980;2023-05-21T01:02:24;13.70;94.50
43647;DHT22;56152;49.996;18.980;2023-05-21T01:07:26;13.60;94.50
43647;DHT22;56152;49.996;18.980;2023-05-21T01:12:31;13.70;94.50
43647;DHT22;56152;49.996;18.980;2023-05-21T01:17:37;13.70;94.60
43647;DHT22;56152;49.996;18.980;2023-05-21T01:22:48;13.70;94.70
43647;DHT22;56152;49.996;18.980;2023-05-21T01:27:54;13.70;94.70
43647;DHT22;56152;49.996;18.980;2023-05-21T01:33:02;13.70;94.70
43647;DHT22;56152;49.996;18.980;2023-05-21T01:38:11;13.70;94.80
43647;DHT22;56152;49.996;18.980;2023-05-21T01:43:15;13.70;94.80
43647;DHT22;56152;49.996;18.980;2023-05-21T01:48:18;13.70;94.90
43647;DHT22;56152;49.996;18.980;2023-05-21T01:53:22;13.70;95.00
43647;DHT22;56152;49.996;18.980;2023-05-21T01:58:24;13.70;95.00
43647;DHT22;56152;49.996;18.980;2023-05-21T02:03:27;13.80;95.10
43647;DHT22;56152;49.996;18.980;2023-05-21T02:08:32;13.80;95.20
43647;DHT22;56152;49.996;18.980;2023-05-21T02:13:34;13.80;95.20
43647;DHT22;56152;49.996;18.980;2023-05-21T02:18:41;13.80;95.20
43647;DHT22;56152;49.996;18.980;2023-05-21T02:23:46;13.90;95.30
43647;DHT22;56152;49.996;18.980;2023-05-21T02:28:47;13.90;95.30
43647;DHT22;56152;49.996;18.980;2023-05-21T02:33:49;14.00;95.30
43647;DHT22;56152;49.996;18.980;2023-05-21T02:38:54;14.00;95.30
43647;DHT22;56152;49.996;18.980;2023-05-21T02:43:57;14.10;95.40
43647;DHT22;56152;49.996;18.980;2023-05-21T02:48:59;14.10;95.50
43647;DHT22;56152;49.996;18.980;2023-05-21T02:54:06;14.10;95.50
43647;DHT22;56152;49.996;18.980;2023-05-21T02:59:07;14.10;95.50
43647;DHT22;56152;49.996;18.980;2023-05-21T03:04:13;14.10;95.60
43647;DHT22;56152;49.996;18.980;2023-05-21T03:09:18;14.10;95.60
43647;DHT22;56152;49.996;18.980;2023-05-21T03:14:21;14.00;95.70
43647;DHT22;56152;49.996;18.980;2023-05-21T03:19:24;14.00;95.80
43647;DHT22;56152;49.996;18.980;2023-05-21T03:24:27;14.00;95.80
43647;DHT22;56152;49.996;18.980;2023-05-21T03:29:32;14.00;95.90
43647;DHT22;56152;49.996;18.980;2023-05-21T03:34:35;14.00;95.90
43647;DHT22;56152;49.996;18.980;2023-05-21T03:39:38;14.00;96.00
43647;DHT22;56152;49.996;18.980;2023-05-21T03:44:46;14.00;96.00
43647;DHT22;56152;49.996;18.980;2023-05-21T03:49:49;14.00;96.10
43647;DHT22;56152;49.996;18.980;2023-05-21T03:54:53;14.00;96.00
43647;DHT22;56152;49.996;18.980;2023-05-21T03:59:55;14.10;96.10
43647;DHT22;56152;49.996;18.980;2023-05-21T04:04:58;14.10;96.10
43647;DHT22;56152;49.996;18.980;2023-05-21T04:10:02;14.20;96.00
43647;DHT22;56152;49.996;18.980;2023-05-21T04:15:05;14.30;96.00
43647;DHT22;56152;49.996;18.980;2023-05-21T04:20:13;14.50;95.90
43647;DHT22;56152;49.996;18.980;2023-05-21T04:25:17;14.70;95.70
43647;DHT22;56152;49.996;18.980;2023-05-21T04:30:23;14.80;95.50
43647;DHT22;56152;49.996;18.980;2023-05-21T04:35:27;15.00;95.40
43647;DHT22;56152;49.996;18.980;2023-05-21T04:40:33;15.20;95.20
43647;DHT22;56152;49.996;18.980;2023-05-21T04:45:38;15.30;94.90
43647;DHT22;56152;49.996;18.980;2023-05-21T04:50:40;15.50;94.70
43647;DHT22;56152;49.996;18.980;2023-05-21T04:55:44;15.70;94.60
43647;DHT22;56152;49.996;18.980;2023-05-21T05:00:46;15.90;94.30
43647;DHT22;56152;49.996;18.980;2023-05-21T05:05:50;16.00;94.10
43647;DHT22;56152;49.996;18.980;2023-05-21T05:10:54;16.20;94.00
43647;DHT22;56152;49.996;18.980;2023-05-21T05:15:56;16.40;93.60
43647;DHT22;56152;49.996;18.980;2023-05-21T05:20:57;16.60;93.60
43647;DHT22;56152;49.996;18.980;2023-05-21T05:26:02;16.70;93.30
43647;DHT22;56152;49.996;18.980;2023-05-21T05:31:05;17.00;93.00
43647;DHT22;56152;49.996;18.980;2023-05-21T05:36:11;17.40;92.50
43647;DHT22;56152;49.996;18.980;2023-05-21T05:41:17;17.50;92.20
43647;DHT22;56152;49.996;18.980;2023-05-21T05:46:20;17.70;92.20
43647;DHT22;56152;49.996;18.980;2023-05-21T05:51:25;18.00;91.80
43647;DHT22;56152;49.996;18.980;2023-05-21T05:56:30;18.30;91.60
43647;DHT22;56152;49.996;18.980;2023-05-21T06:01:32;18.70;91.20
43647;DHT22;56152;49.996;18.980;2023-05-21T06:06:34;19.10;90.50
43647;DHT22;56152;49.996;18.980;2023-05-21T06:11:39;19.20;90.00
43647;DHT22;56152;49.996;18.980;2023-05-21T06:16:41;19.30;89.90
43647;DHT22;56152;49.996;18.980;2023-05-21T06:21:43;19.50;88.70
43647;DHT22;56152;49.996;18.980;2023-05-21T06:26:46;19.60;88.50
43647;DHT22;56152;49.996;18.980;2023-05-21T06:31:51;19.70;87.50
43647;DHT22;56152;49.996;18.980;2023-05-21T06:36:55;20.00;87.00
43647;DHT22;56152;49.996;18.980;2023-05-21T06:41:59;20.20;85.40
43647;DHT22;56152;49.996;18.980;2023-05-21T06:47:02;20.10;85.10
43647;DHT22;56152;49.996;18.980;2023-05-21T06:52:05;20.10;85.70
43647;DHT22;56152;49.996;18.980;2023-05-21T06:57:09;20.30;84.90
43647;DHT22;56152;49.996;18.980;2023-05-21T07:02:11;20.70;84.50
43647;DHT22;56152;49.996;18.980;2023-05-21T07:07:14;21.20;83.40
43647;DHT22;56152;49.996;18.980;2023-05-21T07:12:17;21.30;82.20
43647;DHT22;56152;49.996;18.980;2023-05-21T07:17:19;21.80;81.50
43647;DHT22;56152;49.996;18.980;2023-05-21T07:22:21;21.90;80.90
43647;DHT22;56152;49.996;18.980;2023-05-21T07:27:28;22.00;80.60
43647;DHT22;56152;49.996;18.980;2023-05-21T07:32:30;22.10;79.60
43647;DHT22;56152;49.996;18.980;2023-05-21T07:37:32;22.20;79.30
43647;DHT22;56152;49.996;18.980;2023-05-21T07:42:35;22.40;79.20
43647;DHT22;56152;49.996;18.980;2023-05-21T07:47:38;22.60;78.40
43647;DHT22;56152;49.996;18.980;2023-05-21T07:52:42;22.60;77.40
43647;DHT22;56152;49.996;18.980;2023-05-21T07:57:49;22.70;77.40
43647;DHT22;56152;49.996;18.980;2023-05-21T08:02:51;22.80;76.70
43647;DHT22;56152;49.996;18.980;2023-05-21T08:07:54;23.20;76.00
43647;DHT22;56152;49.996;18.980;2023-05-21T08:12:58;23.20;74.60
43647;DHT22;56152;49.996;18.980;2023-05-21T08:18:00;23.20;74.80
43647;DHT22;56152;49.996;18.980;2023-05-21T08:23:03;23.30;74.10
43647;DHT22;56152;49.996;18.980;2023-05-21T08:28:08;23.20;74.10
43647;DHT22;56152;49.996;18.980;2023-05-21T08:33:11;23.20;73.90
43647;DHT22;56152;49.996;18.980;2023-05-21T08:38:14;23.30;73.30
43647;DHT22;56152;49.996;18.980;2023-05-21T08:43:18;23.50;72.80
43647;DHT22;56152;49.996;18.980;2023-05-21T08:48:22;23.70;71.50
43647;DHT22;56152;49.996;18.980;2023-05-21T08:53:24;23.80;69.90
43647;DHT22;56152;49.996;18.980;2023-05-21T08:58:31;24.00;70.20
43647;DHT22;56152;49.996;18.980;2023-05-21T09:03:34;24.10;69.40
43647;DHT22;56152;49.996;18.980;2023-05-21T09:08:43;24.30;69.70
43647;DHT22;56152;49.996;18.980;2023-05-21T09:13:49;24.50;67.00
43647;DHT22;56152;49.996;18.980;2023-05-21T09:18:52;24.30;67.00
43647;DHT22;56152;49.996;18.980;2023-05-21T09:23:54;24.20;67.10
43647;DHT22;56152;49.996;18.980;2023-05-21T09:28:59;24.20;65.80
43647;DHT22;56152;49.996;18.980;2023-05-21T09:34:02;24.10;65.20
43647;DHT22;56152;49.996;18.980;2023-05-21T09:39:06;24.10;65.30
43647;DHT22;56152;49.996;18.980;2023-05-21T09:44:13;24.40;63.70
43647;DHT22;56152;49.996;18.980;2023-05-21T09:49:24;24.40;63.30
43647;DHT22;56152;49.996;18.980;2023-05-21T09:54:33;24.40;63.00
43647;DHT22;56152;49.996;18.980;2023-05-21T09:59:38;24.30;62.10
43647;DHT22;56152;49.996;18.980;2023-05-21T10:04:40;24.30;61.30
43647;DHT22;56152;49.996;18.980;2023-05-21T10:09:46;24.30;62.50
43647;DHT22;56152;49.996;18.980;2023-05-21T10:14:55;24.30;62.80
43647;DHT22;56152;49.996;18.980;2023-05-21T10:20:01;24.50;62.50
43647;DHT22;56152;49.996;18.980;2023-05-21T10:25:06;24.90;62.70
43647;DHT22;56152;49.996;18.980;2023-05-21T10:30:10;24.80;61.20
43647;DHT22;56152;49.996;18.980;2023-05-21T10:35:14;24.80;61.30
43647;DHT22;56152;49.996;18.980;2023-05-21T10:40:17;25.00;60.10
43647;DHT22;56152;49.996;18.980;2023-05-21T10:45:40;25.10;60.10
43647;DHT22;56152;49.996;18.980;2023-05-21T10:51:13;24.90;58.70
43647;DHT22;56152;49.996;18.980;2023-05-21T10:56:21;25.10;58.90
43647;DHT22;56152;49.996;18.980;2023-05-21T11:01:28;25.10;58.50
43647;DHT22;56152;49.996;18.980;2023-05-21T11:06:38;25.20;58.50
43647;DHT22;56152;49.996;18.980;2023-05-21T11:11:42;25.20;57.80
43647;DHT22;56152;49.996;18.980;2023-05-21T11:16:49;25.10;56.90
43647;DHT22;56152;49.996;18.980;2023-05-21T11:22:02;25.10;57.20
43647;DHT22;56152;49.996;18.980;2023-05-21T11:27:07;25.10;56.10
43647;DHT22;56152;49.996;18.980;2023-05-21T11:32:14;25.10;56.50
43647;DHT22;56152;49.996;18.980;2023-05-21T11:37:32;25.10;55.10
43647;DHT22;56152;49.996;18.980;2023-05-21T11:42:38;25.00;55.30
43647;DHT22;56152;49.996;18.980;2023-05-21T11:47:43;25.10;54.90
43647;DHT22;56152;49.996;18.980;2023-05-21T11:52:46;25.20;54.90
43647;DHT22;56152;49.996;18.980;2023-05-21T11:57:52;25.20;55.00
43647;DHT22;56152;49.996;18.980;2023-05-21T12:02:57;25.20;54.30
43647;DHT22;56152;49.996;18.980;2023-05-21T12:08:04;25.00;53.80
43647;DHT22;56152;49.996;18.980;2023-05-21T12:13:21;25.10;53.70
43647;DHT22;56152;49.996;18.980;2023-05-21T12:18:27;24.90;53.70
43647;DHT22;56152;49.996;18.980;2023-05-21T12:23:29;24.80;54.10
43647;DHT22;56152;49.996;18.980;2023-05-21T12:28:31;24.80;54.20
43647;DHT22;56152;49.996;18.980;2023-05-21T12:33:35;24.90;53.90
43647;DHT22;56152;49.996;18.980;2023-05-21T12:38:37;24.80;54.00
43647;DHT22;56152;49.996;18.980;2023-05-21T12:43:43;24.80;54.70
43647;DHT22;56152;49.996;18.980;2023-05-21T12:48:49;24.90;54.70
43647;DHT22;56152;49.996;18.980;2023-05-21T12:53:58;24.70;55.10
43647;DHT22;56152;49.996;18.980;2023-05-21T12:59:01;24.60;54.40
43647;DHT22;56152;49.996;18.980;2023-05-21T13:04:08;24.70;54.30
43647;DHT22;56152;49.996;18.980;2023-05-21T13:09:14;24.70;54.20
43647;DHT22;56152;49.996;18.980;2023-05-21T13:14:16;24.80;54.60
43647;DHT22;56152;49.996;18.980;2023-05-21T13:19:28;24.80;54.00
43647;DHT22;56152;49.996;18.980;2023-05-21T13:24:30;24.70;54.50
43647;DHT22;56152;49.996;18.980;2023-05-21T13:29:33;24.60;54.40
43647;DHT22;56152;49.996;18.980;2023-05-21T13:34:40;24.60;54.30
43647;DHT22;56152;49.996;18.980;2023-05-21T13:39:42;24.60;54.70
43647;DHT22;56152;49.996;18.980;2023-05-21T13:44:45;24.60;54.60
43647;DHT22;56152;49.996;18.980;2023-05-21T13:49:48;24.50;54.80
43647;DHT22;56152;49.996;18.980;2023-05-21T13:54:50;24.50;55.20
43647;DHT22;56152;49.996;18.980;2023-05-21T13:59:54;24.50;55.00
43647;DHT22;56152;49.996;18.980;2023-05-21T14:05:04;24.40;55.00
43647;DHT22;56152;49.996;18.980;2023-05-21T14:10:07;24.30;55.30
43647;DHT22;56152;49.996;18.980;2023-05-21T14:15:11;24.30;55.30
43647;DHT22;56152;49.996;18.980;2023-05-21T14:20:17;24.20;55.30
43647;DHT22;56152;49.996;18.980;2023-05-21T14:25:18;24.30;55.50
43647;DHT22;56152;49.996;18.980;2023-05-21T14:30:32;24.30;55.30
43647;DHT22;56152;49.996;18.980;2023-05-21T14:35:42;24.30;55.50
43647;DHT22;56152;49.996;18.980;2023-05-21T14:40:45;24.40;55.50
43647;DHT22;56152;49.996;18.980;2023-05-21T14:45:52;24.50;55.50
43647;DHT22;56152;49.996;18.980;2023-05-21T14:51:02;24.80;55.40
43647;DHT22;56152;49.996;18.980;2023-05-21T14:56:09;24.60;54.50
43647;DHT22;56152;49.996;18.980;2023-05-21T15:01:26;24.50;54.50
43647;DHT22;56152;49.996;18.980;2023-05-21T15:06:34;24.60;55.00
43647;DHT22;56152;49.996;18.980;2023-05-21T15:11:36;24.50;55.20
43647;DHT22;56152;49.996;18.980;2023-05-21T15:16:44;24.50;55.10
43647;DHT22;56152;49.996;18.980;2023-05-21T15:22:03;24.30;54.90
43647;DHT22;56152;49.996;18.980;2023-05-21T15:27:07;24.10;55.00
43647;DHT22;56152;49.996;18.980;2023-05-21T15:32:14;23.80;55.00
43647;DHT22;56152;49.996;18.980;2023-05-21T15:37:17;23.70;55.10
43647;DHT22;56152;49.996;18.980;2023-05-21T15:42:20;23.80;55.20
43647;DHT22;56152;49.996;18.980;2023-05-21T15:47:25;23.80;55.80
43647;DHT22;56152;49.996;18.980;2023-05-21T15:52:29;23.80;55.70
43647;DHT22;56152;49.996;18.980;2023-05-21T15:57:33;23.70;55.80
43647;DHT22;56152;49.996;18.980;2023-05-21T16:02:36;23.70;55.60
43647;DHT22;56152;49.996;18.980;2023-05-21T16:07:43;23.60;55.10
43647;DHT22;56152;49.996;18.980;2023-05-21T16:12:48;23.30;54.80
43647;DHT22;56152;49.996;18.980;2023-05-21T16:17:52;23.20;55.60
43647;DHT22;56152;49.996;18.980;2023-05-21T16:22:56;23.10;55.20
43647;DHT22;56152;49.996;18.980;2023-05-21T16:28:00;22.90;55.30
43647;DHT22;56152;49.996;18.980;2023-05-21T16:33:02;22.80;55.40
43647;DHT22;56152;49.996;18.980;2023-05-21T16:38:06;22.70;55.30
43647;DHT22;56152;49.996;18.980;2023-05-21T16:43:08;22.50;55.50
43647;DHT22;56152;49.996;18.980;2023-05-21T16:48:10;22.20;56.10
43647;DHT22;56152;49.996;18.980;2023-05-21T16:53:15;22.20;56.70
43647;DHT22;56152;49.996;18.980;2023-05-21T16:58:16;22.10;56.70
43647;DHT22;56152;49.996;18.980;2023-05-21T17:03:19;21.90;56.80
43647;DHT22;56152;49.996;18.980;2023-05-21T17:08:22;21.80;56.90
43647;DHT22;56152;49.996;18.980;2023-05-21T17:13:24;21.70;57.10
43647;DHT22;56152;49.996;18.980;2023-05-21T17:18:26;21.50;57.10
43647;DHT22;56152;49.996;18.980;2023-05-21T17:23:32;21.40;57.50
43647;DHT22;56152;49.996;18.980;2023-05-21T17:28:37;21.30;57.60
43647;DHT22;56152;49.996;18.980;2023-05-21T17:33:45;21.20;57.90
43647;DHT22;56152;49.996;18.980;2023-05-21T17:38:53;21.00;58.00
43647;DHT22;56152;49.996;18.980;2023-05-21T17:43:59;20.90;58.20
43647;DHT22;56152;49.996;18.980;2023-05-21T17:49:01;20.80;58.50
43647;DHT22;56152;49.996;18.980;2023-05-21T17:54:06;20.60;58.90
43647;DHT22;56152;49.996;18.980;2023-05-21T17:59:10;20.50;59.30
43647;DHT22;56152;49.996;18.980;2023-05-21T18:04:13;20.30;59.50
43647;DHT22;56152;49.996;18.980;2023-05-21T18:09:16;20.20;60.00
43647;DHT22;56152;49.996;18.980;2023-05-21T18:14:20;20.00;60.60
43647;DHT22;56152;49.996;18.980;2023-05-21T18:19:29;19.90;61.20
43647;DHT22;56152;49.996;18.980;2023-05-21T18:24:33;19.60;61.70
43647;DHT22;56152;49.996;18.980;2023-05-21T18:29:35;19.50;62.50
43647;DHT22;56152;49.996;18.980;2023-05-21T18:34:37;19.30;62.90
43647;DHT22;56152;49.996;18.980;2023-05-21T18:39:44;19.20;63.50
43647;DHT22;56152;49.996;18.980;2023-05-21T18:44:49;19.00;64.00
43647;DHT22;56152;49.996;18.980;2023-05-21T18:49:52;18.80;64.40
43647;DHT22;56152;49.996;18.980;2023-05-21T18:54:59;18.70;64.80
43647;DHT22;56152;49.996;18.980;2023-05-21T19:00:03;18.60;65.20
43647;DHT22;56152;49.996;18.980;2023-05-21T19:05:07;18.50;65.60
43647;DHT22;56152;49.996;18.980;2023-05-21T19:10:11;18.30;65.90
43647;DHT22;56152;49.996;18.980;2023-05-21T19:15:21;18.20;66.30
43647;DHT22;56152;49.996;18.980;2023-05-21T19:20:23;18.10;66.70
43647;DHT22;56152;49.996;18.980;2023-05-21T19:25:27;18.00;67.20
43647;DHT22;56152;49.996;18.980;2023-05-21T19:30:30;17.80;67.50
43647;DHT22;56152;49.996;18.980;2023-05-21T19:35:35;17.70;68.10
43647;DHT22;56152;49.996;18.980;2023-05-21T19:40:38;17.60;68.40
43647;DHT22;56152;49.996;18.980;2023-05-21T19:45:40;17.50;68.70
43647;DHT22;56152;49.996;18.980;2023-05-21T19:50:44;17.40;68.90
43647;DHT22;56152;49.996;18.980;2023-05-21T19:55:50;17.40;69.00
43647;DHT22;56152;49.996;18.980;2023-05-21T20:00:52;17.40;68.80
43647;DHT22;56152;49.996;18.980;2023-05-21T20:06:02;17.40;68.80
43647;DHT22;56152;49.996;18.980;2023-05-21T20:11:10;17.30;68.90
43647;DHT22;56152;49.996;18.980;2023-05-21T20:16:11;17.30;69.00
43647;DHT22;56152;49.996;18.980;2023-05-21T20:21:14;17.20;69.20
43647;DHT22;56152;49.996;18.980;2023-05-21T20:26:19;17.10;69.40
43647;DHT22;56152;49.996;18.980;2023-05-21T20:31:21;17.10;69.60
43647;DHT22;56152;49.996;18.980;2023-05-21T20:36:24;17.00;69.80
43647;DHT22;56152;49.996;18.980;2023-05-21T20:41:30;16.90;70.20
43647;DHT22;56152;49.996;18.980;2023-05-21T20:46:36;16.80;70.30
43647;DHT22;56152;49.996;18.980;2023-05-21T20:51:46;16.80;70.50
43647;DHT22;56152;49.996;18.980;2023-05-21T20:57:05;16.70;70.50
43647;DHT22;56152;49.996;18.980;2023-05-21T21:02:10;16.60;70.70
43647;DHT22;56152;49.996;18.980;2023-05-21T21:07:13;16.60;70.80
43647;DHT22;56152;49.996;18.980;2023-05-21T21:12:20;16.50;70.80
43647;DHT22;56152;49.996;18.980;2023-05-21T21:17:22;16.50;71.10
43647;DHT22;56152;49.996;18.980;2023-05-21T21:22:24;16.40;71.10
43647;DHT22;56152;49.996;18.980;2023-05-21T21:27:28;16.40;71.20
43647;DHT22;56152;49.996;18.980;2023-05-21T21:32:30;16.30;71.30
43647;DHT22;56152;49.996;18.980;2023-05-21T21:37:32;16.30;71.40
43647;DHT22;56152;49.996;18.980;2023-05-21T21:42:35;16.20;71.60
43647;DHT22;56152;49.996;18.980;2023-05-21T21:47:37;16.10;71.70
43647;DHT22;56152;49.996;18.980;2023-05-21T21:52:43;16.00;71.90
43647;DHT22;56152;49.996;18.980;2023-05-21T21:57:49;16.00;72.00
43647;DHT22;56152;49.996;18.980;2023-05-21T22:02:56;16.00;72.20
43647;DHT22;56152;49.996;18.980;2023-05-21T22:07:58;15.90;72.20
43647;DHT22;56152;49.996;18.980;2023-05-21T22:13:01;15.80;72.30
43647;DHT22;56152;49.996;18.980;2023-05-21T22:18:06;15.70;72.40
43647;DHT22;56152;49.996;18.980;2023-05-21T22:23:09;15.70;72.60
43647;DHT22;56152;49.996;18.980;2023-05-21T22:28:13;15.60;72.80
43647;DHT22;56152;49.996;18.980;2023-05-21T22:33:16;15.50;73.00
43647;DHT22;56152;49.996;18.980;2023-05-21T22:38:17;15.40;73.10
43647;DHT22;56152;49.996;18.980;2023-05-21T22:43:21;15.30;73.20
43647;DHT22;56152;49.996;18.980;2023-05-21T22:48:26;15.20;73.40
43647;DHT22;56152;49.996;18.980;2023-05-21T22:53:29;15.10;74.30
43647;DHT22;56152;49.996;18.980;2023-05-21T22:58:33;15.10;74.00
43647;DHT22;56152;49.996;18.980;2023-05-21T23:03:36;15.00;74.30
43647;DHT22;56152;49.996;18.980;2023-05-21T23:08:39;14.90;74.50
43647;DHT22;56152;49.996;18.980;2023-05-21T23:13:42;14.80;74.70
43647;DHT22;56152;49.996;18.980;2023-05-21T23:18:44;14.70;75.20
43647;DHT22;56152;49.996;18.980;2023-05-21T23:23:47;14.60;75.40
43647;DHT22;56152;49.996;18.980;2023-05-21T23:28:51;14.50;75.60
43647;DHT22;56152;49.996;18.980;2023-05-21T23:33:53;14.40;75.80
43647;DHT22;56152;49.996;18.980;2023-05-21T23:38:56;14.40;76.00
43647;DHT22;56152;49.996;18.980;2023-05-21T23:43:59;14.30;76.10
43647;DHT22;56152;49.996;18.980;2023-05-21T23:49:02;14.20;76.20
43647;DHT22;56152;49.996;18.980;2023-05-21T23:54:07;14.10;76.40
43647;DHT22;56152;49.996;18.980;2023-05-21T23:59:11;14.00;76.80
